createdAt,value
2018-03-14T08:38:49.047Z,11.35
2018-03-14T08:39:38.120Z,11.49
2018-03-14T08:40:27.172Z,11.51
2018-03-14T08:41:16.233Z,11.62
2018-03-14T08:42:05.287Z,11.68
2018-03-14T08:42:54.330Z,11.71
2018-03-14T08:43:43.371Z,11.53
2018-03-14T08:44:32.455Z,11.61
2018-03-14T08:45:21.541Z,11.63
2018-03-14T08:46:10.660Z,11.83
2018-03-14T08:46:59.721Z,11.86
2018-03-14T08:47:48.758Z,11.87
2018-03-14T08:48:38.119Z,11.57
2018-03-14T08:49:27.197Z,11.62
2018-03-14T08:50:16.335Z,11.74
2018-03-14T08:51:05.404Z,11.89
2018-03-14T08:51:54.442Z,11.71
2018-03-14T08:52:43.476Z,11.76
2018-03-14T08:53:32.529Z,11.74
2018-03-14T08:54:21.595Z,11.61
2018-03-14T08:55:10.698Z,11.50
2018-03-14T08:55:59.818Z,11.63
2018-03-14T08:56:48.854Z,11.78
2018-03-14T08:57:37.892Z,11.74
2018-03-14T08:58:27.222Z,11.77
2018-03-14T08:59:16.262Z,11.98
2018-03-14T09:00:05.317Z,12.12
2018-03-14T09:00:54.366Z,12.18
2018-03-14T09:01:43.406Z,12.04
2018-03-14T09:02:32.451Z,12.23
2018-03-14T09:03:21.496Z,12.33
2018-03-14T09:04:10.602Z,12.44
2018-03-14T09:04:59.655Z,12.50
2018-03-14T09:05:48.697Z,12.50
2018-03-14T09:06:37.748Z,12.28
2018-03-14T09:07:26.845Z,12.16
2018-03-14T09:08:15.893Z,11.96
2018-03-14T09:09:05.048Z,11.90
2018-03-14T09:09:54.109Z,11.99
2018-03-14T09:10:43.155Z,12.04
2018-03-14T09:11:32.204Z,12.12
2018-03-14T09:12:21.239Z,12.09
2018-03-14T09:13:10.269Z,12.09
2018-03-14T09:13:59.414Z,12.19
2018-03-14T09:14:48.456Z,12.25
2018-03-14T09:15:37.636Z,12.24
2018-03-14T09:16:26.674Z,12.25
2018-03-14T09:17:15.709Z,12.28
2018-03-14T09:18:05.081Z,12.49
2018-03-14T09:18:54.148Z,12.29
2018-03-14T09:19:43.188Z,12.44
2018-03-14T09:20:32.224Z,12.27
2018-03-14T09:21:21.271Z,12.39
2018-03-14T09:22:10.491Z,12.42
2018-03-14T09:22:59.532Z,12.53
2018-03-14T09:23:48.631Z,12.43
2018-03-14T09:24:37.685Z,12.36
2018-03-14T09:25:26.719Z,12.10
2018-03-14T09:26:15.775Z,12.12
2018-03-14T09:27:04.811Z,12.10
2018-03-14T09:27:53.881Z,12.05
2018-03-14T09:28:42.901Z,12.05
2018-03-14T09:29:31.923Z,12.13
2018-03-14T09:30:20.957Z,12.33
2018-03-14T09:31:10.160Z,12.26
2018-03-14T09:31:59.190Z,12.40
2018-03-14T09:32:48.223Z,12.37
2018-03-14T09:33:37.329Z,12.35
2018-03-14T09:34:26.427Z,12.23
2018-03-14T09:35:15.483Z,12.36
2018-03-14T09:36:04.531Z,12.45
2018-03-14T09:36:53.584Z,12.55
2018-03-14T09:37:42.627Z,12.68
2018-03-14T09:38:31.718Z,12.63
2018-03-14T09:39:20.778Z,12.43
2018-03-14T09:40:09.824Z,12.51
2018-03-14T09:40:58.963Z,12.47
2018-03-14T09:41:48.007Z,12.62
2018-03-14T09:42:37.041Z,12.56
2018-03-14T09:43:26.079Z,12.52
2018-03-14T09:44:15.116Z,12.46
2018-03-14T09:45:04.189Z,12.33
2018-03-14T09:45:53.227Z,12.24
2018-03-14T09:46:42.320Z,12.18
2018-03-14T09:47:31.424Z,12.24
2018-03-14T09:48:20.460Z,12.33
2018-03-14T09:49:09.495Z,12.36
2018-03-14T09:49:58.530Z,12.47
2018-03-14T09:50:47.571Z,12.67
2018-03-14T09:51:36.608Z,12.78
2018-03-14T09:52:25.657Z,12.81
2018-03-14T09:53:14.728Z,12.67
2018-03-14T09:54:03.772Z,12.77
2018-03-14T09:54:52.806Z,12.76
2018-03-14T09:55:41.841Z,12.82
2018-03-14T09:56:30.891Z,12.69
2018-03-14T09:57:19.950Z,12.81
2018-03-14T09:58:08.988Z,12.89
2018-03-14T09:58:58.128Z,12.92
2018-03-14T09:59:47.164Z,12.89
2018-03-14T10:00:36.200Z,12.96
2018-03-14T10:01:25.246Z,12.88
2018-03-14T10:02:14.373Z,12.49
2018-03-14T10:03:03.439Z,12.53
2018-03-14T10:03:52.494Z,12.57
2018-03-14T10:04:41.553Z,12.74
2018-03-14T10:05:30.584Z,12.97
2018-03-14T10:06:19.626Z,12.79
2018-03-14T10:07:08.664Z,12.74
2018-03-14T10:07:57.853Z,12.86
2018-03-14T10:08:46.890Z,12.96
2018-03-14T10:09:35.989Z,13.04
2018-03-14T10:10:25.027Z,13.07
2018-03-14T10:11:14.079Z,12.99
2018-03-14T10:12:03.130Z,13.04
2018-03-14T10:12:52.192Z,12.77
2018-03-14T10:13:41.228Z,13.00
2018-03-14T10:14:30.267Z,12.82
2018-03-14T10:15:19.413Z,12.57
2018-03-14T10:16:08.493Z,12.77
2018-03-14T10:16:57.538Z,12.76
2018-03-14T10:17:46.577Z,12.57
2018-03-14T10:18:35.630Z,12.73
2018-03-14T10:19:24.775Z,12.34
2018-03-14T10:20:13.821Z,12.25
2018-03-14T10:21:02.875Z,12.60
2018-03-14T10:21:51.928Z,12.61
2018-03-14T10:22:41.006Z,12.82
2018-03-14T10:23:30.062Z,12.90
2018-03-14T10:24:19.106Z,12.87
2018-03-14T10:25:08.177Z,12.98
2018-03-14T10:25:57.246Z,12.93
2018-03-14T10:26:46.294Z,12.85
2018-03-14T10:27:35.343Z,12.89
2018-03-14T10:28:24.378Z,12.93
2018-03-14T10:29:13.759Z,12.91
2018-03-14T10:30:02.802Z,12.96
2018-03-14T10:30:51.870Z,12.94
2018-03-14T10:31:40.905Z,13.03
2018-03-14T10:32:29.950Z,13.19
2018-03-14T10:33:18.996Z,13.47
2018-03-14T10:34:08.115Z,13.62
2018-03-14T10:34:57.153Z,13.30
2018-03-14T10:35:46.182Z,13.41
2018-03-14T10:36:35.327Z,13.30
2018-03-14T10:37:24.364Z,13.44
2018-03-14T10:38:13.420Z,13.55
2018-03-14T10:39:02.481Z,13.69
2018-03-14T10:39:51.541Z,13.54
2018-03-14T10:40:40.584Z,13.73
2018-03-14T10:41:29.609Z,13.42
2018-03-14T10:42:18.896Z,13.24
2018-03-14T10:43:07.932Z,13.52
2018-03-14T10:43:56.981Z,13.28
2018-03-14T10:44:46.041Z,13.13
2018-03-14T10:45:35.077Z,13.23
2018-03-14T10:46:24.112Z,13.10
2018-03-14T10:47:13.156Z,13.19
2018-03-14T10:48:02.230Z,13.31
2018-03-14T10:48:51.277Z,13.50
2018-03-14T10:49:40.303Z,13.26
2018-03-14T10:50:29.378Z,13.26
2018-03-14T10:51:18.414Z,13.36
2018-03-14T10:52:07.447Z,13.36
2018-03-14T10:52:56.488Z,13.65
2018-03-14T10:53:45.640Z,13.71
2018-03-14T10:54:34.678Z,13.89
2018-03-14T10:55:23.725Z,14.07
2018-03-14T10:56:12.773Z,13.94
2018-03-14T10:57:01.810Z,13.84
2018-03-14T10:57:50.989Z,13.35
2018-03-14T10:58:40.033Z,13.39
2018-03-14T10:59:29.076Z,13.37
2018-03-14T11:00:23.517Z,13.27
2018-03-14T11:01:12.593Z,13.29
2018-03-14T11:02:07.004Z,13.56
2018-03-14T11:03:01.474Z,13.44
2018-03-14T11:03:50.528Z,13.34
2018-03-14T11:04:39.586Z,13.37
2018-03-14T11:05:28.634Z,13.44
2018-03-14T11:06:17.685Z,13.48
2018-03-14T11:07:06.725Z,13.62
2018-03-14T11:07:58.360Z,13.76
2018-03-14T11:08:47.412Z,13.93
2018-03-14T11:09:36.574Z,14.04
2018-03-14T11:10:25.776Z,14.02
2018-03-14T11:11:14.817Z,13.83
2018-03-14T11:12:03.889Z,13.66
2018-03-14T11:12:53.199Z,13.69
2018-03-14T11:13:42.262Z,13.75
2018-03-14T11:14:31.322Z,13.74
2018-03-14T11:15:20.380Z,13.63
2018-03-14T11:16:09.480Z,13.66
2018-03-14T11:16:58.515Z,13.48
2018-03-14T11:17:47.572Z,13.52
2018-03-14T11:18:36.619Z,13.63
2018-03-14T11:19:25.678Z,13.70
2018-03-14T11:20:14.822Z,14.01
2018-03-14T11:21:03.882Z,13.88
2018-03-14T11:21:52.934Z,13.70
2018-03-14T11:22:41.984Z,13.72
2018-03-14T11:23:31.036Z,13.58
2018-03-14T11:24:20.070Z,13.74
2018-03-14T11:25:09.171Z,13.92
2018-03-14T11:25:58.329Z,13.67
2018-03-14T11:26:47.366Z,13.70
2018-03-14T11:27:36.428Z,13.58
2018-03-14T11:28:25.474Z,13.92
2018-03-14T11:29:14.521Z,14.14
2018-03-14T11:30:03.819Z,13.97
2018-03-14T11:30:52.863Z,14.29
2018-03-14T11:31:41.911Z,14.09
2018-03-14T11:32:31.166Z,13.91
2018-03-14T11:33:20.202Z,13.51
2018-03-14T11:34:09.247Z,13.66
2018-03-14T11:34:58.301Z,13.84
2018-03-14T11:35:47.525Z,14.09
2018-03-14T11:36:36.568Z,14.02
2018-03-14T11:37:25.614Z,14.06
2018-03-14T11:38:14.673Z,13.94
2018-03-14T11:39:03.770Z,13.78
2018-03-14T11:39:52.816Z,13.62
2018-03-14T11:40:41.859Z,13.39
2018-03-14T11:41:30.977Z,13.21
2018-03-14T11:42:20.068Z,12.99
2018-03-14T11:43:09.108Z,13.09
2018-03-14T11:43:58.180Z,13.00
2018-03-14T11:44:47.220Z,12.89
2018-03-14T11:45:36.269Z,13.02
2018-03-14T11:46:25.325Z,13.02
2018-03-14T11:47:14.838Z,12.99
2018-03-14T11:48:03.921Z,12.96
2018-03-14T11:48:52.982Z,12.88
2018-03-14T11:49:42.062Z,12.70
2018-03-14T11:50:31.098Z,12.61
2018-03-14T11:51:20.145Z,12.57
2018-03-14T11:52:09.209Z,12.53
2018-03-14T11:52:58.256Z,12.37
2018-03-14T11:53:47.315Z,12.36
2018-03-14T11:54:36.362Z,12.43
2018-03-14T11:55:25.453Z,12.46
2018-03-14T11:56:14.489Z,12.37
2018-03-14T11:57:03.535Z,12.53
2018-03-14T11:57:52.600Z,12.65
2018-03-14T11:58:41.636Z,12.68
2018-03-14T11:59:30.725Z,12.86
2018-03-14T12:00:19.797Z,12.83
2018-03-14T12:01:08.846Z,12.97
2018-03-14T12:01:57.886Z,12.91
2018-03-14T12:02:47.024Z,12.94
2018-03-14T12:03:36.095Z,12.96
2018-03-14T12:04:25.140Z,12.97
2018-03-14T12:05:14.187Z,12.99
2018-03-14T12:06:03.240Z,12.85
2018-03-14T12:06:52.287Z,12.77
2018-03-14T12:07:41.331Z,12.83
2018-03-14T12:08:30.663Z,13.03
2018-03-14T12:09:19.724Z,13.00
2018-03-14T12:10:08.791Z,13.02
2018-03-14T12:10:57.989Z,13.00
2018-03-14T12:11:47.035Z,12.86
2018-03-14T12:12:36.067Z,12.72
2018-03-14T12:13:25.121Z,12.73
2018-03-14T12:14:14.192Z,12.50
2018-03-14T12:15:03.231Z,12.76
2018-03-14T12:15:52.274Z,12.58
2018-03-14T12:16:41.356Z,12.60
2018-03-14T12:17:30.403Z,12.63
2018-03-14T12:18:19.466Z,12.66
2018-03-14T12:19:08.521Z,12.58
2018-03-14T12:19:57.565Z,12.56
2018-03-14T12:20:46.604Z,12.68
2018-03-14T12:21:35.652Z,12.49
2018-03-14T12:22:30.334Z,12.51
2018-03-14T12:23:19.399Z,12.77
2018-03-14T12:24:08.488Z,12.69
2018-03-14T12:24:57.535Z,12.47
2018-03-14T12:25:46.580Z,12.56
2018-03-14T12:26:35.738Z,12.42
2018-03-14T12:27:24.828Z,12.36
2018-03-14T12:28:13.876Z,12.59
2018-03-14T12:29:02.932Z,12.60
2018-03-14T12:29:51.985Z,12.61
2018-03-14T12:30:41.025Z,12.24
2018-03-14T12:31:30.075Z,12.31
2018-03-14T12:32:19.175Z,12.39
2018-03-14T12:33:08.237Z,12.50
2018-03-14T12:33:57.297Z,12.46
2018-03-14T12:34:46.360Z,12.60
2018-03-14T12:35:35.409Z,12.75
2018-03-14T12:36:24.457Z,12.76
2018-03-14T12:37:13.498Z,12.94
2018-03-14T12:38:02.660Z,13.08
2018-03-14T12:38:51.703Z,12.78
2018-03-14T12:39:40.736Z,12.85
2018-03-14T12:40:29.849Z,13.01
2018-03-14T12:41:18.889Z,13.12
2018-03-14T12:42:07.990Z,13.29
2018-03-14T12:42:57.053Z,12.83
2018-03-14T12:43:46.128Z,12.98
2018-03-14T12:44:35.161Z,13.31
2018-03-14T12:45:24.203Z,13.20
2018-03-14T12:46:13.289Z,12.85
2018-03-14T12:47:02.328Z,13.11
2018-03-14T12:47:51.438Z,13.42
2018-03-14T12:48:40.471Z,13.53
2018-03-14T12:49:29.508Z,13.43
2018-03-14T12:50:18.554Z,13.47
2018-03-14T12:51:07.595Z,13.33
2018-03-14T12:51:56.636Z,12.82
2018-03-14T12:52:45.672Z,12.55
2018-03-14T12:53:34.821Z,12.53
2018-03-14T12:54:23.865Z,12.38
2018-03-14T12:55:12.910Z,12.20
2018-03-14T12:56:01.951Z,12.23
2018-03-14T12:56:50.988Z,12.47
2018-03-14T12:57:40.031Z,12.39
2018-03-14T12:58:29.073Z,12.53
2018-03-14T12:59:18.220Z,12.39
2018-03-14T13:00:07.308Z,12.42
2018-03-14T13:00:56.348Z,12.28
2018-03-14T13:01:45.383Z,12.16
2018-03-14T13:02:34.427Z,12.17
2018-03-14T13:03:23.548Z,11.91
2018-03-14T13:04:12.608Z,11.81
2018-03-14T13:05:01.643Z,11.53
2018-03-14T13:05:50.682Z,11.41
2018-03-14T13:06:39.763Z,11.35
2018-03-14T13:07:28.808Z,11.08
2018-03-14T13:08:17.854Z,11.04
2018-03-14T13:09:06.983Z,11.00
2018-03-14T13:09:56.264Z,11.04
2018-03-14T13:10:45.291Z,11.12
2018-03-14T13:11:34.348Z,11.28
2018-03-14T13:12:27.028Z,11.44
2018-03-14T13:13:16.073Z,11.59
2018-03-14T13:14:05.117Z,11.58
2018-03-14T13:14:54.288Z,11.48
2018-03-14T13:15:43.328Z,11.54
2018-03-14T13:16:32.366Z,11.41
2018-03-14T13:17:21.403Z,11.31
2018-03-14T13:18:10.486Z,11.34
2018-03-14T13:18:59.502Z,11.63
2018-03-14T13:19:48.540Z,11.86
2018-03-14T13:20:37.629Z,11.59
2018-03-14T13:21:26.690Z,11.88
2018-03-14T13:22:15.762Z,11.97
2018-03-14T13:23:04.805Z,12.14
2018-03-14T13:23:53.852Z,12.15
2018-03-14T13:24:42.898Z,11.80
2018-03-14T13:25:31.963Z,11.84
2018-03-14T13:26:21.086Z,11.80
2018-03-14T13:27:10.139Z,11.84
2018-03-14T13:27:59.175Z,11.73
2018-03-14T13:28:48.209Z,11.71
2018-03-14T13:29:37.261Z,11.84
2018-03-14T13:30:26.310Z,12.07
2018-03-14T13:31:15.360Z,12.03
2018-03-14T13:32:04.534Z,11.99
2018-03-14T13:32:53.627Z,11.80
2018-03-14T13:33:42.638Z,11.81
2018-03-14T13:34:31.688Z,12.01
2018-03-14T13:35:20.750Z,12.14
2018-03-14T13:36:09.802Z,12.24
2018-03-14T13:36:58.931Z,12.23
2018-03-14T13:37:47.984Z,12.46
2018-03-14T13:38:37.022Z,12.49
2018-03-14T13:39:26.083Z,12.42
2018-03-14T13:40:15.142Z,12.09
2018-03-14T13:41:04.198Z,12.42
2018-03-14T13:41:53.260Z,12.72
2018-03-14T13:42:42.370Z,12.59
2018-03-14T13:43:31.422Z,12.53
2018-03-14T13:44:20.541Z,12.91
2018-03-14T13:45:09.592Z,13.15
2018-03-14T13:45:58.651Z,13.33
2018-03-14T13:46:47.696Z,13.32
2018-03-14T13:47:36.860Z,13.14
2018-03-14T13:48:25.929Z,13.20
2018-03-14T13:49:14.988Z,12.95
2018-03-14T13:50:04.068Z,13.14
2018-03-14T13:50:53.129Z,13.72
2018-03-14T13:51:42.215Z,13.83
2018-03-14T13:52:31.263Z,13.88
2018-03-14T13:53:20.400Z,13.62
2018-03-14T13:54:09.480Z,13.93
2018-03-14T13:54:58.534Z,13.75
2018-03-14T13:55:47.590Z,13.71
2018-03-14T13:56:36.776Z,14.03
2018-03-14T13:57:25.828Z,13.60
2018-03-14T13:58:14.874Z,13.60
2018-03-14T13:59:03.934Z,13.55
2018-03-14T13:59:52.984Z,13.96
2018-03-14T14:00:42.056Z,14.18
2018-03-14T14:01:31.112Z,14.35
2018-03-14T14:02:20.211Z,14.20
2018-03-14T14:03:09.288Z,14.07
2018-03-14T14:03:58.343Z,14.06
2018-03-14T14:04:47.393Z,14.35
2018-03-14T14:05:36.464Z,14.37
2018-03-14T14:06:25.533Z,13.93
2018-03-14T14:07:14.596Z,13.42
2018-03-14T14:08:03.704Z,13.37
2018-03-14T14:08:52.752Z,13.28
2018-03-14T14:09:41.811Z,13.05
2018-03-14T14:10:30.883Z,12.82
2018-03-14T14:11:19.935Z,12.72
2018-03-14T14:12:09.011Z,12.53
2018-03-14T14:12:58.066Z,12.48
2018-03-14T14:13:47.640Z,12.59
2018-03-14T14:14:36.726Z,12.67
2018-03-14T14:15:25.787Z,12.67
2018-03-14T14:16:14.857Z,12.75
2018-03-14T14:17:03.924Z,12.99
2018-03-14T14:17:52.968Z,13.23
2018-03-14T14:18:42.023Z,13.32
2018-03-14T14:19:31.113Z,13.35
2018-03-14T14:20:20.812Z,13.59
2018-03-14T14:21:09.864Z,13.80
2018-03-14T14:21:58.949Z,13.52
2018-03-14T14:22:48.005Z,13.52
2018-03-14T14:23:37.071Z,13.52
2018-03-14T14:24:26.138Z,13.88
2018-03-14T14:25:15.229Z,14.12
2018-03-14T14:26:04.331Z,14.66
2018-03-14T14:26:53.405Z,14.85
2018-03-14T14:27:42.456Z,14.80
2018-03-14T14:28:31.511Z,15.01
2018-03-14T14:29:20.570Z,15.11
2018-03-14T14:30:09.626Z,15.30
2018-03-14T14:30:58.804Z,15.61
2018-03-14T14:31:47.881Z,15.21
2018-03-14T14:32:36.955Z,15.02
2018-03-14T14:33:26.041Z,15.15
2018-03-14T14:34:15.087Z,14.78
2018-03-14T14:35:04.173Z,14.89
2018-03-14T14:35:53.233Z,14.85
2018-03-14T14:36:42.396Z,14.84
2018-03-14T14:37:31.439Z,14.80
2018-03-14T14:38:20.524Z,15.14
2018-03-14T14:39:09.632Z,14.89
2018-03-14T14:39:58.687Z,14.82
2018-03-14T14:40:47.749Z,15.36
2018-03-14T14:41:36.883Z,15.90
2018-03-14T14:42:26.009Z,16.17
2018-03-14T14:43:15.058Z,16.73
2018-03-14T14:44:04.330Z,15.69
2018-03-14T14:44:53.372Z,15.36
2018-03-14T14:45:42.429Z,15.16
2018-03-14T14:46:31.496Z,14.35
2018-03-14T14:47:20.552Z,14.81
2018-03-14T14:48:09.595Z,14.72
2018-03-14T14:48:58.653Z,14.68
2018-03-14T14:49:47.756Z,14.55
2018-03-14T14:50:36.971Z,14.07
2018-03-14T14:51:26.024Z,13.80
2018-03-14T14:52:15.121Z,13.50
2018-03-14T14:53:04.217Z,13.24
2018-03-14T14:53:53.265Z,12.76
2018-03-14T14:54:42.321Z,12.52
2018-03-14T14:55:31.476Z,12.27
2018-03-14T14:56:20.521Z,12.09
2018-03-14T14:57:10.241Z,11.93
2018-03-14T14:57:59.296Z,11.66
2018-03-14T14:58:48.339Z,11.62
2018-03-14T14:59:37.398Z,11.62
2018-03-14T15:00:26.479Z,11.52
2018-03-14T15:01:15.544Z,11.44
2018-03-14T15:02:04.627Z,11.31
2018-03-14T15:02:53.716Z,11.33
2018-03-14T15:03:42.784Z,11.26
2018-03-14T15:04:31.890Z,11.23
2018-03-14T15:05:20.976Z,11.07
2018-03-14T15:06:10.089Z,11.01
2018-03-14T15:06:59.146Z,11.05
2018-03-14T15:07:48.193Z,11.08
2018-03-14T15:08:37.313Z,11.04
2018-03-14T15:09:26.359Z,10.88
2018-03-14T15:10:15.411Z,10.87
2018-03-14T15:11:04.462Z,10.88
2018-03-14T15:11:53.530Z,10.81
2018-03-14T15:12:42.710Z,10.78
2018-03-14T15:13:31.774Z,10.81
2018-03-14T15:14:20.836Z,10.79
2018-03-14T15:15:09.905Z,10.84
2018-03-14T15:15:58.953Z,10.81
2018-03-14T15:16:48.020Z,10.85
2018-03-14T15:17:37.207Z,10.80
2018-03-14T15:18:26.267Z,10.77
2018-03-14T15:19:15.321Z,10.72
2018-03-14T15:20:04.409Z,10.59
2018-03-14T15:20:53.482Z,10.58
2018-03-14T15:21:42.565Z,10.66
2018-03-14T15:22:31.607Z,10.67
2018-03-14T15:23:20.694Z,10.66
2018-03-14T15:24:09.753Z,10.63
2018-03-14T15:24:58.830Z,10.66
2018-03-14T15:25:47.888Z,10.62
2018-03-14T15:26:36.949Z,10.59
2018-03-14T15:27:26.007Z,10.59
2018-03-14T15:28:15.048Z,10.61
2018-03-14T15:29:04.206Z,10.56
2018-03-14T15:29:53.308Z,10.58
2018-03-14T15:30:42.395Z,10.58
2018-03-14T15:31:31.476Z,10.61
2018-03-14T15:32:20.807Z,10.52
2018-03-14T15:33:10.238Z,10.56
2018-03-14T15:33:59.305Z,10.56
2018-03-14T15:34:48.364Z,10.60
2018-03-14T15:35:37.426Z,10.53
2018-03-14T15:36:26.539Z,10.46
2018-03-14T15:37:15.600Z,10.50
2018-03-14T15:38:04.693Z,10.46
2018-03-14T15:38:53.813Z,10.48
2018-03-14T15:39:42.897Z,10.45
2018-03-14T15:40:31.958Z,10.43
2018-03-14T15:41:21.013Z,10.50
2018-03-14T15:42:10.101Z,10.52
2018-03-14T15:42:59.159Z,10.53
2018-03-14T15:43:48.216Z,10.57
2018-03-14T15:44:37.395Z,10.57
2018-03-14T15:45:26.646Z,10.46
2018-03-14T15:46:15.710Z,10.48
2018-03-14T15:47:04.788Z,10.47
2018-03-14T15:47:53.846Z,10.44
2018-03-14T15:48:42.952Z,10.46
2018-03-14T15:49:31.995Z,10.45
2018-03-14T15:50:24.322Z,10.29
2018-03-14T15:51:13.384Z,10.18
2018-03-14T15:52:02.437Z,10.11
2018-03-14T15:52:51.499Z,10.22
2018-03-14T15:53:40.636Z,10.24
2018-03-14T15:54:32.160Z,10.13
2018-03-14T15:55:21.245Z,10.14
2018-03-14T15:56:10.345Z,10.16
2018-03-14T15:56:59.428Z,10.14
2018-03-14T15:57:48.483Z,10.16
2018-03-14T15:58:37.545Z,10.17
2018-03-14T15:59:26.597Z,10.15
2018-03-14T16:00:15.659Z,10.17
2018-03-14T16:01:05.295Z,10.22
2018-03-14T16:01:54.424Z,10.19
2018-03-14T16:02:43.485Z,10.18
2018-03-14T16:03:32.538Z,10.11
2018-03-14T16:04:21.591Z,10.10
2018-03-14T16:05:10.704Z,10.10
2018-03-14T16:05:59.753Z,10.03
2018-03-14T16:06:48.830Z,9.99
2018-03-14T16:07:37.892Z,10.00
2018-03-14T16:08:26.964Z,9.99
2018-03-14T16:09:16.013Z,9.97
2018-03-14T16:10:05.169Z,9.99
2018-03-14T16:10:54.219Z,9.97
2018-03-14T16:11:43.270Z,9.96
2018-03-14T16:12:32.341Z,9.95
2018-03-14T16:13:21.389Z,9.94
2018-03-14T16:14:10.457Z,9.93
2018-03-14T16:14:59.540Z,9.81
2018-03-14T16:15:48.692Z,9.80
2018-03-14T16:16:37.759Z,9.81
2018-03-14T16:17:26.939Z,9.93
2018-03-14T16:18:16.029Z,9.94
2018-03-14T16:19:05.078Z,9.97
2018-03-14T16:19:54.130Z,9.88
2018-03-14T16:20:43.196Z,9.84
2018-03-14T16:21:32.261Z,9.57
2018-03-14T16:22:21.306Z,9.37
2018-03-14T16:23:10.381Z,9.49
2018-03-14T16:23:59.493Z,9.31
2018-03-14T16:24:48.572Z,9.40
2018-03-14T16:25:37.625Z,9.45
2018-03-14T16:26:26.676Z,9.42
2018-03-14T16:27:15.736Z,9.41
2018-03-14T16:28:04.838Z,9.41
2018-03-14T16:28:53.892Z,9.42
2018-03-14T16:29:42.937Z,9.40
2018-03-14T16:30:31.984Z,9.38
2018-03-14T16:31:21.035Z,9.34
2018-03-14T16:32:10.096Z,9.28
2018-03-14T16:32:59.134Z,9.24
2018-03-14T16:33:48.277Z,9.24
2018-03-14T16:34:37.330Z,9.22
2018-03-14T16:35:26.385Z,9.20
2018-03-14T16:36:15.450Z,9.19
2018-03-14T16:37:04.515Z,9.17
2018-03-14T16:37:53.560Z,9.16
2018-03-14T16:38:42.614Z,9.13
2018-03-14T16:39:31.700Z,9.16
2018-03-14T16:40:20.760Z,9.17
2018-03-14T16:41:09.808Z,9.10
2018-03-14T16:41:58.883Z,9.10
2018-03-14T16:42:47.921Z,9.11
2018-03-14T16:43:36.980Z,9.07
2018-03-14T16:44:26.050Z,8.99
2018-03-14T16:45:15.272Z,9.03
2018-03-14T16:46:04.336Z,9.03
2018-03-14T16:46:53.389Z,9.03
2018-03-14T16:47:42.434Z,9.12
2018-03-14T16:48:31.485Z,9.11
2018-03-14T16:49:20.533Z,9.13
2018-03-14T16:50:09.601Z,9.09
2018-03-14T16:50:59.130Z,9.08
2018-03-14T16:51:48.169Z,9.08
2018-03-14T16:52:37.213Z,9.07
2018-03-14T16:53:26.246Z,9.06
2018-03-14T16:54:15.313Z,9.06
2018-03-14T16:55:04.376Z,9.03
2018-03-14T16:55:53.431Z,8.98
2018-03-14T16:56:42.728Z,9.01
2018-03-14T16:57:34.428Z,9.01
2018-03-14T16:58:23.469Z,8.91
2018-03-14T16:59:12.554Z,8.86
2018-03-14T17:00:01.638Z,8.77
2018-03-14T17:00:50.718Z,8.79
2018-03-14T17:01:39.788Z,8.91
2018-03-14T17:02:28.832Z,8.88
2018-03-14T17:03:17.889Z,8.95
2018-03-14T17:04:06.972Z,8.87
2018-03-14T17:04:56.016Z,8.99
2018-03-14T17:05:45.096Z,8.96
2018-03-14T17:06:34.157Z,8.96
2018-03-14T17:07:23.213Z,8.99
2018-03-14T17:08:12.302Z,8.99
2018-03-14T17:09:01.352Z,8.96
2018-03-14T17:09:50.421Z,8.92
2018-03-14T17:10:39.476Z,8.96
2018-03-14T17:11:28.579Z,8.93
2018-03-14T17:12:17.957Z,9.03
2018-03-14T17:13:07.052Z,8.99
2018-03-14T17:13:56.157Z,9.00
2018-03-14T17:14:45.205Z,9.02
2018-03-14T17:15:34.287Z,9.00
2018-03-14T17:16:23.356Z,8.97
2018-03-14T17:17:12.573Z,8.96
2018-03-14T17:18:01.637Z,8.85
2018-03-14T17:18:50.704Z,8.84
2018-03-14T17:19:39.777Z,8.85
2018-03-14T17:20:28.833Z,8.78
2018-03-14T17:21:17.890Z,8.76
2018-03-14T17:22:06.973Z,8.84
2018-03-14T17:22:56.116Z,8.85
2018-03-14T17:23:45.202Z,8.84
2018-03-14T17:24:34.257Z,8.86
2018-03-14T17:25:23.319Z,8.80
2018-03-14T17:26:12.449Z,8.76
2018-03-14T17:27:01.498Z,8.67
2018-03-14T17:27:50.577Z,8.63
2018-03-14T17:28:40.134Z,8.58
2018-03-14T17:29:29.217Z,8.54
2018-03-14T17:30:18.286Z,8.56
2018-03-14T17:31:07.371Z,8.58
2018-03-14T17:31:56.510Z,8.53
2018-03-14T17:32:45.559Z,8.53
2018-03-14T17:33:34.632Z,8.50
2018-03-14T17:34:23.684Z,8.44
2018-03-14T17:35:12.734Z,8.37
2018-03-14T17:36:01.807Z,8.35
2018-03-14T17:36:50.853Z,8.34
2018-03-14T17:37:39.905Z,8.36
2018-03-14T17:38:29.023Z,8.31
2018-03-14T17:39:18.176Z,8.26
2018-03-14T17:40:07.233Z,8.21
2018-03-14T17:40:56.326Z,8.03
2018-03-14T17:41:45.380Z,7.92
2018-03-14T17:42:34.463Z,7.81
2018-03-14T17:43:23.587Z,7.80
2018-03-14T17:44:12.636Z,7.72
2018-03-14T17:45:01.698Z,7.72
2018-03-14T17:45:51.005Z,7.65
2018-03-14T17:46:40.039Z,7.62
2018-03-14T17:47:29.084Z,7.68
2018-03-14T17:48:18.142Z,7.72
2018-03-14T17:49:07.201Z,7.73
2018-03-14T17:49:56.266Z,7.82
2018-03-14T17:50:45.307Z,7.86
2018-03-14T17:51:34.488Z,7.81
2018-03-14T17:52:23.570Z,7.88
2018-03-14T17:53:12.631Z,7.84
2018-03-14T17:54:01.682Z,7.80
2018-03-14T17:54:50.742Z,7.78
2018-03-14T17:55:39.802Z,7.76
2018-03-14T17:56:28.886Z,7.81
2018-03-14T17:57:17.980Z,7.81
2018-03-14T17:58:07.033Z,7.71
2018-03-14T17:58:56.086Z,7.72
2018-03-14T17:59:45.138Z,7.67
2018-03-14T18:00:34.199Z,7.71
2018-03-14T18:01:23.263Z,7.68
2018-03-14T18:02:12.314Z,7.71
2018-03-14T18:03:01.732Z,7.45
2018-03-14T18:03:50.784Z,7.50
2018-03-14T18:04:39.827Z,7.65
2018-03-14T18:05:28.969Z,7.81
2018-03-14T18:06:18.052Z,7.82
2018-03-14T18:07:07.131Z,7.82
2018-03-14T18:07:56.190Z,7.77
2018-03-14T18:08:45.331Z,7.76
2018-03-14T18:09:34.400Z,7.79
2018-03-14T18:10:23.466Z,7.87
2018-03-14T18:11:12.574Z,7.85
2018-03-14T18:12:01.636Z,7.88
2018-03-14T18:12:50.683Z,7.86
2018-03-14T18:13:39.741Z,7.86
2018-03-14T18:14:28.818Z,7.84
2018-03-14T18:15:17.865Z,7.84
2018-03-14T18:16:07.069Z,7.88
2018-03-14T18:16:56.146Z,7.91
2018-03-14T18:17:45.207Z,7.84
2018-03-14T18:18:34.283Z,7.84
2018-03-14T18:19:23.343Z,7.81
2018-03-14T18:20:12.392Z,7.80
2018-03-14T18:21:01.437Z,7.76
2018-03-14T18:21:50.757Z,7.78
2018-03-14T18:22:39.797Z,7.76
2018-03-14T18:23:28.891Z,7.81
2018-03-14T18:24:17.948Z,7.85
2018-03-14T18:25:07.001Z,7.91
2018-03-14T18:25:56.131Z,7.92
2018-03-14T18:26:45.180Z,7.93
2018-03-14T18:27:34.282Z,7.89
2018-03-14T18:28:23.368Z,7.86
2018-03-14T18:29:12.437Z,7.85
2018-03-14T18:31:28.140Z,7.82
2018-03-14T18:32:18.958Z,7.73
2018-03-14T18:33:08.125Z,7.59
2018-03-14T18:33:57.298Z,7.63
2018-03-14T18:34:46.443Z,7.65
2018-03-14T18:35:35.493Z,7.69
2018-03-14T18:36:24.897Z,7.65
2018-03-14T18:37:14.076Z,7.70
2018-03-14T18:38:03.233Z,7.70
2018-03-14T18:38:52.312Z,7.61
2018-03-14T18:39:41.732Z,7.53
2018-03-14T18:40:30.778Z,7.42
2018-03-14T18:41:20.046Z,7.28
2018-03-14T18:42:09.260Z,7.12
2018-03-14T18:42:59.414Z,7.07
2018-03-14T18:43:48.461Z,7.14
2018-03-14T18:44:37.532Z,7.23
2018-03-14T18:45:26.585Z,7.20
2018-03-14T18:46:15.639Z,7.19
2018-03-14T18:47:04.731Z,7.28
2018-03-14T18:47:53.802Z,7.32
2018-03-14T18:48:42.903Z,7.26
2018-03-14T18:49:31.965Z,7.19
2018-03-14T18:50:21.029Z,7.29
2018-03-14T18:51:10.073Z,7.35
2018-03-14T18:51:59.119Z,7.36
2018-03-14T18:52:48.158Z,7.19
2018-03-14T18:53:37.214Z,7.15
2018-03-14T18:54:26.323Z,7.02
2018-03-14T18:55:15.786Z,7.01
2018-03-14T18:56:04.895Z,7.05
2018-03-14T18:56:53.949Z,7.05
2018-03-14T18:57:42.996Z,7.13
2018-03-14T18:58:32.320Z,7.11
2018-03-14T18:59:21.582Z,7.17
2018-03-14T19:00:10.654Z,7.13
2018-03-14T19:00:59.815Z,7.08
2018-03-14T19:01:48.874Z,7.02
2018-03-14T19:02:37.943Z,7.05
2018-03-14T19:03:27.004Z,7.04
2018-03-14T19:04:16.075Z,7.13
2018-03-14T19:05:05.220Z,7.19
2018-03-14T19:05:54.417Z,7.20
2018-03-14T19:06:43.492Z,7.23
2018-03-14T19:07:32.569Z,7.24
2018-03-14T19:08:21.671Z,7.19
2018-03-14T19:09:10.762Z,7.10
2018-03-14T19:09:59.853Z,7.09
2018-03-14T19:10:48.960Z,7.02
2018-03-14T19:11:38.014Z,6.99
2018-03-14T19:12:27.088Z,6.99
2018-03-14T19:13:16.138Z,6.99
2018-03-14T19:14:05.204Z,7.00
2018-03-14T19:14:54.263Z,7.01
2018-03-14T19:15:43.798Z,7.08
2018-03-14T19:16:32.859Z,7.10
2018-03-14T19:17:21.904Z,7.04
2018-03-14T19:18:10.948Z,6.97
2018-03-14T19:19:00.019Z,6.99